PWSweather.com
Personal Weather Stations
Station Observations
MBORO100
Brandywood , Murfreesboro, TN 37130

Brandywood Murfreesboro, TN 37130

Lat: 35.908093, Lon: -86.31352

Elevation: 690

Station Type: Davis

Latest ConditionsUpdated 4:10:01 PM CST Saturday, Feb 23, 2019
Currently Today's Max Today's Min Today's Average
Temperature 60.5°F15.8°C 60.6°F15.9°C 52.4°F11.3°C 55.2°F12.9°C
Dew Point 59.3°F15.2°C 59.4°F15.2°C 51.9°F11.1°C 54.8°F12.7°C
Winds 3.5 mph ESE5.6 kmh ESE 5.8 mph -9.3 kmh - - 2.3 mph 3.7 kmh
Wind Gusts 5.8 mph9.3 kmh 10.4 mph16.7 kmh - -
Humidity 96% 99% 96% 99%
Pressure 29.80 in1009.1 mb 30.13 in1020.3 mb 29.80 in1009.1 mb -
Precipitation - 1.37 in34.8 mm - -
Hour Temp Dew Point Humidity Winds Wind Gusts Pressure Precip Precip Rate Daily Precip Total
04:10 PM 60.5°F15.8°C 59.3°F15.2°C 96% 3.5 mph ESE5.6 kmh ESE 5.8 mph9.3 kmh 29.80 in1009.1 mb - 0.00 in0.0 mm 1.37 in34.8 mm
04:00 PM 60.5°F15.8°C 59.4°F15.2°C 96% 3.5 mph ESE5.6 kmh ESE 3.5 mph5.6 kmh 29.81 in1009.5 mb - 0.00 in0.0 mm 1.37 in34.8 mm
03:55 PM 60.5°F15.8°C 59.4°F15.2°C 96% 2.3 mph ESE3.7 kmh ESE 6.9 mph11.1 kmh 29.81 in1009.5 mb - 0.00 in0.0 mm 1.37 in34.8 mm
03:50 PM 60.5°F15.8°C 59.4°F15.2°C 96% 2.3 mph SE3.7 kmh SE 3.5 mph5.6 kmh 29.82 in1009.8 mb - 0.00 in0.0 mm 1.37 in34.8 mm
03:45 PM 60.6°F15.9°C 59.4°F15.2°C 96% 3.5 mph ESE5.6 kmh ESE 3.5 mph5.6 kmh 29.82 in1009.8 mb - 0.00 in0.0 mm 1.37 in34.8 mm
03:40 PM 60.5°F15.8°C 59.4°F15.2°C 96% 3.5 mph SE5.6 kmh SE 8.1 mph13.0 kmh 29.82 in1009.8 mb - 0.00 in0.0 mm 1.37 in34.8 mm
03:35 PM 60.5°F15.8°C 59.4°F15.2°C 96% 4.6 mph SE7.4 kmh SE 5.8 mph9.3 kmh 29.83 in1010.2 mb - 0.00 in0.0 mm 1.37 in34.8 mm
03:30 PM 60.5°F15.8°C 59.3°F15.2°C 96% 3.5 mph SE5.6 kmh SE 5.8 mph9.3 kmh 29.83 in1010.2 mb - 0.00 in0.0 mm 1.37 in34.8 mm
03:25 PM 60.4°F15.8°C 59.3°F15.2°C 96% 3.5 mph ESE5.6 kmh ESE 4.6 mph7.4 kmh 29.84 in1010.5 mb - 0.00 in0.0 mm 1.37 in34.8 mm
03:20 PM 60.3°F15.7°C 59.4°F15.2°C 97% 4.6 mph SE7.4 kmh SE 8.1 mph13.0 kmh 29.84 in1010.5 mb - 0.00 in0.0 mm 1.37 in34.8 mm
03:15 PM 60.2°F15.7°C 59.3°F15.2°C 97% 4.6 mph ESE7.4 kmh ESE 5.8 mph9.3 kmh 29.84 in1010.5 mb - 0.00 in0.0 mm 1.37 in34.8 mm
03:10 PM 60.1°F15.6°C 59.2°F15.1°C 97% 4.6 mph E7.4 kmh E 4.6 mph7.4 kmh 29.84 in1010.5 mb - 0.00 in0.0 mm 1.37 in34.8 mm
03:00 PM 59.9°F15.5°C 59.3°F15.2°C 98% 4.6 mph SE7.4 kmh SE 9.2 mph14.8 kmh 29.85 in1010.8 mb - 0.00 in0.0 mm 1.37 in34.8 mm
02:55 PM 59.7°F15.4°C 59.2°F15.1°C 98% 5.8 mph ESE9.3 kmh ESE 9.2 mph14.8 kmh 29.85 in1010.8 mb - 0.00 in0.0 mm 1.37 in34.8 mm
02:50 PM 59.6°F15.3°C 59.0°F15.0°C 98% 3.5 mph ESE5.6 kmh ESE 5.8 mph9.3 kmh 29.85 in1010.8 mb - 0.00 in0.0 mm 1.37 in34.8 mm
02:45 PM 59.5°F15.3°C 58.9°F14.9°C 98% 5.8 mph ESE9.3 kmh ESE 10.4 mph16.7 kmh 29.86 in1011.2 mb - 0.00 in0.0 mm 1.37 in34.8 mm
02:40 PM 59.4°F15.2°C 58.8°F14.9°C 98% 5.8 mph SE9.3 kmh SE 8.1 mph13.0 kmh 29.86 in1011.2 mb - 0.00 in0.0 mm 1.37 in34.8 mm
02:35 PM 59.4°F15.2°C 59.1°F15.1°C 99% 3.5 mph ESE5.6 kmh ESE 5.8 mph9.3 kmh 29.87 in1011.5 mb - 0.00 in0.0 mm 1.37 in34.8 mm
02:30 PM 59.4°F15.2°C 59.1°F15.1°C 99% 5.8 mph ESE9.3 kmh ESE 10.4 mph16.7 kmh 29.87 in1011.5 mb - 0.00 in0.0 mm 1.37 in34.8 mm
02:25 PM 59.3°F15.2°C 59.0°F15.0°C 99% 3.5 mph SE5.6 kmh SE 5.8 mph9.3 kmh 29.88 in1011.9 mb - 0.00 in0.0 mm 1.37 in34.8 mm
02:20 PM 59.1°F15.1°C 58.8°F14.9°C 99% 3.5 mph ESE5.6 kmh ESE 6.9 mph11.1 kmh 29.88 in1011.9 mb - 0.00 in0.0 mm 1.37 in34.8 mm
02:15 PM 58.9°F14.9°C 58.6°F14.8°C 99% 5.8 mph ESE9.3 kmh ESE 9.2 mph14.8 kmh 29.88 in1011.9 mb - 0.00 in0.0 mm 1.37 in34.8 mm
02:10 PM 58.7°F14.8°C 58.4°F14.7°C 99% 4.6 mph ESE7.4 kmh ESE 10.4 mph16.7 kmh 29.89 in1012.2 mb - 0.00 in0.0 mm 1.37 in34.8 mm
02:00 PM 57.9°F14.4°C 57.7°F14.3°C 99% 5.8 mph ESE9.3 kmh ESE 9.2 mph14.8 kmh 29.90 in1012.5 mb - 0.00 in0.0 mm 1.37 in34.8 mm
01:55 PM 57.4°F14.1°C 57.2°F14.0°C 99% 4.6 mph SE7.4 kmh SE 8.1 mph13.0 kmh 29.90 in1012.5 mb - 0.00 in0.0 mm 1.37 in34.8 mm
01:50 PM 57.0°F13.9°C 56.7°F13.7°C 99% 4.6 mph SE7.4 kmh SE 8.1 mph13.0 kmh 29.91 in1012.9 mb - 0.00 in0.0 mm 1.37 in34.8 mm
01:45 PM 56.7°F13.7°C 56.4°F13.6°C 99% 3.5 mph ESE5.6 kmh ESE 6.9 mph11.1 kmh 29.91 in1012.9 mb - 0.00 in0.0 mm 1.37 in34.8 mm
01:40 PM 56.5°F13.6°C 56.2°F13.4°C 99% 4.6 mph ESE7.4 kmh ESE 6.9 mph11.1 kmh 29.91 in1012.9 mb - 0.00 in0.0 mm 1.37 in34.8 mm
01:35 PM 56.4°F13.6°C 56.1°F13.4°C 99% 4.6 mph ESE7.4 kmh ESE 6.9 mph11.1 kmh 29.92 in1013.2 mb - 0.00 in0.0 mm 1.37 in34.8 mm
01:30 PM 56.2°F13.4°C 55.9°F13.3°C 99% 3.5 mph ESE5.6 kmh ESE 3.5 mph5.6 kmh 29.92 in1013.2 mb - 0.00 in0.0 mm 1.37 in34.8 mm
01:25 PM 56.0°F13.3°C 55.7°F13.2°C 99% 3.5 mph ESE5.6 kmh ESE 6.9 mph11.1 kmh 29.92 in1013.2 mb - 0.00 in0.0 mm 1.37 in34.8 mm
01:20 PM 56.1°F13.4°C 55.8°F13.2°C 99% 4.6 mph ESE7.4 kmh ESE 6.9 mph11.1 kmh 29.92 in1013.2 mb - 0.00 in0.0 mm 1.37 in34.8 mm
01:15 PM 56.1°F13.4°C 55.8°F13.2°C 99% 3.5 mph ESE5.6 kmh ESE 6.9 mph11.1 kmh 29.93 in1013.5 mb - 0.00 in0.0 mm 1.37 in34.8 mm
01:10 PM 56.1°F13.4°C 55.8°F13.2°C 99% 4.6 mph ESE7.4 kmh ESE 6.9 mph11.1 kmh 29.93 in1013.5 mb - 0.01 in0.3 mm 1.37 in34.8 mm
01:00 PM 56.1°F13.4°C 55.8°F13.2°C 99% 2.3 mph ESE3.7 kmh ESE 3.5 mph5.6 kmh 29.94 in1013.9 mb - 0.00 in0.0 mm 1.36 in34.5 mm
12:55 PM 56.0°F13.3°C 55.7°F13.2°C 99% 2.3 mph ESE3.7 kmh ESE 3.5 mph5.6 kmh 29.95 in1014.2 mb - 0.00 in0.0 mm 1.36 in34.5 mm
12:50 PM 56.0°F13.3°C 55.7°F13.2°C 99% 3.5 mph ESE5.6 kmh ESE 5.8 mph9.3 kmh 29.94 in1013.9 mb - 0.00 in0.0 mm 1.36 in34.5 mm
12:45 PM 56.0°F13.3°C 55.7°F13.2°C 99% 3.5 mph ESE5.6 kmh ESE 3.5 mph5.6 kmh 29.95 in1014.2 mb - 0.02 in0.5 mm 1.36 in34.5 mm
12:40 PM 56.0°F13.3°C 55.7°F13.2°C 99% 2.3 mph SE3.7 kmh SE 4.6 mph7.4 kmh 29.96 in1014.6 mb - 0.01 in0.3 mm 1.35 in34.3 mm
12:35 PM 56.0°F13.3°C 55.7°F13.2°C 99% 3.5 mph SE5.6 kmh SE 9.2 mph14.8 kmh 29.95 in1014.2 mb - 0.01 in0.3 mm 1.34 in34.0 mm
12:30 PM 56.1°F13.4°C 55.8°F13.2°C 99% 3.5 mph ESE5.6 kmh ESE 4.6 mph7.4 kmh 29.95 in1014.2 mb - 0.05 in1.3 mm 1.33 in33.8 mm
12:25 PM 56.1°F13.4°C 55.8°F13.2°C 99% 3.5 mph ESE5.6 kmh ESE 6.9 mph11.1 kmh 29.97 in1014.9 mb - 0.04 in1.0 mm 1.29 in32.8 mm
12:20 PM 56.0°F13.3°C 55.7°F13.2°C 99% 3.5 mph SE5.6 kmh SE 6.9 mph11.1 kmh 29.95 in1014.2 mb - 0.00 in0.0 mm 1.25 in31.8 mm
12:15 PM 56.0°F13.3°C 55.7°F13.2°C 99% 3.5 mph ESE5.6 kmh ESE 8.1 mph13.0 kmh 29.96 in1014.6 mb - 0.01 in0.3 mm 1.25 in31.8 mm
12:10 PM 55.9°F13.3°C 55.6°F13.1°C 99% 3.5 mph ESE5.6 kmh ESE 6.9 mph11.1 kmh 29.97 in1014.9 mb - 0.03 in0.8 mm 1.24 in31.5 mm
12:00 PM 55.9°F13.3°C 55.6°F13.1°C 99% 2.3 mph SE3.7 kmh SE 3.5 mph5.6 kmh 29.98 in1015.2 mb - 0.01 in0.3 mm 1.21 in30.7 mm
11:55 AM 55.8°F13.2°C 55.5°F13.1°C 99% 2.3 mph SE3.7 kmh SE 3.5 mph5.6 kmh 29.99 in1015.6 mb - 0.03 in0.8 mm 1.21 in30.7 mm
11:50 AM 55.8°F13.2°C 55.5°F13.1°C 99% 3.5 mph SE5.6 kmh SE 4.6 mph7.4 kmh 30.01 in1016.3 mb - 0.02 in0.5 mm 1.19 in30.2 mm
11:45 AM 55.8°F13.2°C 55.5°F13.1°C 99% 4.6 mph SE7.4 kmh SE 5.8 mph9.3 kmh 30.00 in1015.9 mb - 0.00 in0.0 mm 1.17 in29.7 mm
11:40 AM 55.8°F13.2°C 55.5°F13.1°C 99% 3.5 mph SE5.6 kmh SE 9.2 mph14.8 kmh 29.98 in1015.2 mb - 0.00 in0.0 mm 1.17 in29.7 mm
11:35 AM 55.7°F13.2°C 55.5°F13.1°C 99% 3.5 mph ESE5.6 kmh ESE 5.8 mph9.3 kmh 29.99 in1015.6 mb - 0.00 in0.0 mm 1.17 in29.7 mm
11:30 AM 55.6°F13.1°C 55.4°F13.0°C 99% 3.5 mph SE5.6 kmh SE 5.8 mph9.3 kmh 29.98 in1015.2 mb - 0.00 in0.0 mm 1.17 in29.7 mm
11:25 AM 55.5°F13.1°C 55.2°F12.9°C 99% 3.5 mph SE5.6 kmh SE 5.8 mph9.3 kmh 29.98 in1015.2 mb - 0.00 in0.0 mm 1.17 in29.7 mm
11:20 AM 55.4°F13.0°C 55.1°F12.8°C 99% 3.5 mph SE5.6 kmh SE 6.9 mph11.1 kmh 29.98 in1015.2 mb - 0.00 in0.0 mm 1.17 in29.7 mm
11:15 AM 55.4°F13.0°C 55.1°F12.8°C 99% 2.3 mph SE3.7 kmh SE 3.5 mph5.6 kmh 29.99 in1015.6 mb - 0.00 in0.0 mm 1.17 in29.7 mm
11:10 AM 55.4°F13.0°C 55.1°F12.8°C 99% 3.5 mph ESE5.6 kmh ESE 3.5 mph5.6 kmh 29.99 in1015.6 mb - 0.00 in0.0 mm 1.17 in29.7 mm
11:00 AM 55.4°F13.0°C 55.2°F12.9°C 99% 4.6 mph SE7.4 kmh SE 8.1 mph13.0 kmh 30.00 in1015.9 mb - 0.01 in0.3 mm 1.17 in29.7 mm
10:55 AM 55.4°F13.0°C 55.1°F12.8°C 99% 3.5 mph SE5.6 kmh SE 3.5 mph5.6 kmh 30.01 in1016.3 mb - 0.00 in0.0 mm 1.16 in29.5 mm
10:50 AM 55.3°F12.9°C 55.1°F12.8°C 99% 3.5 mph ESE5.6 kmh ESE 5.8 mph9.3 kmh 30.01 in1016.3 mb - 0.00 in0.0 mm 1.16 in29.5 mm
10:45 AM 55.3°F12.9°C 55.0°F12.8°C 99% 3.5 mph SE5.6 kmh SE 5.8 mph9.3 kmh 30.01 in1016.3 mb - 0.00 in0.0 mm 1.16 in29.5 mm
10:40 AM 55.2°F12.9°C 54.9°F12.7°C 99% 4.6 mph ESE7.4 kmh ESE 5.8 mph9.3 kmh 30.01 in1016.3 mb - 0.01 in0.3 mm 1.16 in29.5 mm
10:35 AM 55.1°F12.8°C 54.8°F12.7°C 99% 3.5 mph ESE5.6 kmh ESE 3.5 mph5.6 kmh 30.01 in1016.3 mb - 0.00 in0.0 mm 1.15 in29.2 mm
10:30 AM 55.1°F12.8°C 54.8°F12.7°C 99% 4.6 mph SE7.4 kmh SE 9.2 mph14.8 kmh 30.02 in1016.6 mb - 0.01 in0.3 mm 1.15 in29.2 mm
10:25 AM 55.2°F12.9°C 54.9°F12.7°C 99% 5.8 mph ESE9.3 kmh ESE 10.4 mph16.7 kmh 30.03 in1016.9 mb - 0.02 in0.5 mm 1.15 in29.2 mm
10:20 AM 55.3°F12.9°C 55.0°F12.8°C 99% 3.5 mph ESE5.6 kmh ESE 6.9 mph11.1 kmh 30.04 in1017.3 mb - 0.00 in0.0 mm 1.13 in28.7 mm
10:15 AM 55.4°F13.0°C 55.1°F12.8°C 99% 3.5 mph SE5.6 kmh SE 6.9 mph11.1 kmh 30.04 in1017.3 mb - 0.01 in0.3 mm 1.13 in28.7 mm
10:10 AM 55.4°F13.0°C 55.1°F12.8°C 99% 3.5 mph ESE5.6 kmh ESE 3.5 mph5.6 kmh 30.05 in1017.6 mb - 0.03 in0.8 mm 1.12 in28.4 mm
10:00 AM 55.3°F12.9°C 55.0°F12.8°C 99% 1.2 mph SE1.9 kmh SE 3.5 mph5.6 kmh 30.06 in1017.9 mb - 0.02 in0.5 mm 1.10 in27.9 mm
09:55 AM 55.3°F12.9°C 55.0°F12.8°C 99% 1.2 mph SE1.9 kmh SE 3.5 mph5.6 kmh 30.06 in1017.9 mb - 0.02 in0.5 mm 1.09 in27.7 mm
09:50 AM 55.3°F12.9°C 55.0°F12.8°C 99% 1.2 mph SE1.9 kmh SE 3.5 mph5.6 kmh 30.07 in1018.3 mb - 0.02 in0.5 mm 1.07 in27.2 mm
09:45 AM 55.3°F12.9°C 55.0°F12.8°C 99% Calm Calm -- 30.07 in1018.3 mb - 0.02 in0.5 mm 1.05 in26.7 mm
09:40 AM 55.3°F12.9°C 55.0°F12.8°C 99% 1.2 mph ESE1.9 kmh ESE 3.5 mph5.6 kmh 30.07 in1018.3 mb - 0.02 in0.5 mm 1.04 in26.4 mm
09:35 AM 55.3°F12.9°C 55.0°F12.8°C 99% Calm Calm 1.2 mph1.9 kmh 30.08 in1018.6 mb - 0.03 in0.8 mm 1.02 in25.9 mm
09:30 AM 55.3°F12.9°C 55.0°F12.8°C 99% 1.2 mph S1.9 kmh S 3.5 mph5.6 kmh 30.07 in1018.3 mb - 0.03 in0.8 mm 1.00 in25.4 mm
09:25 AM 55.2°F12.9°C 54.9°F12.7°C 99% 2.3 mph SE3.7 kmh SE 3.5 mph5.6 kmh 30.08 in1018.6 mb - 0.01 in0.3 mm 0.98 in24.9 mm
09:20 AM 55.2°F12.9°C 54.9°F12.7°C 99% Calm Calm 1.2 mph1.9 kmh 30.07 in1018.3 mb - 0.01 in0.3 mm 0.97 in24.6 mm
09:15 AM 55.2°F12.9°C 54.9°F12.7°C 99% Calm Calm 2.3 mph3.7 kmh 30.05 in1017.6 mb - 0.01 in0.3 mm 0.96 in24.4 mm
09:10 AM 55.1°F12.8°C 54.8°F12.7°C 99% 3.5 mph WSW5.6 kmh WSW 3.5 mph5.6 kmh 30.05 in1017.6 mb - 0.02 in0.5 mm 0.96 in24.4 mm
09:00 AM 55.0°F12.8°C 54.7°F12.6°C 99% 4.6 mph ESE7.4 kmh ESE 6.9 mph11.1 kmh 30.04 in1017.3 mb - 0.01 in0.3 mm 0.94 in23.9 mm
08:55 AM 54.9°F12.7°C 54.6°F12.6°C 99% 3.5 mph SE5.6 kmh SE 6.9 mph11.1 kmh 30.05 in1017.6 mb - 0.03 in0.8 mm 0.94 in23.9 mm
08:50 AM 54.8°F12.7°C 54.5°F12.5°C 99% 1.2 mph SE1.9 kmh SE 3.5 mph5.6 kmh 30.05 in1017.6 mb - 0.01 in0.3 mm 0.91 in23.1 mm
08:45 AM 54.8°F12.7°C 54.5°F12.5°C 99% Calm Calm 1.2 mph1.9 kmh 30.04 in1017.3 mb - 0.01 in0.3 mm 0.90 in22.9 mm
08:40 AM 54.8°F12.7°C 54.5°F12.5°C 99% Calm Calm 2.3 mph3.7 kmh 30.03 in1016.9 mb - 0.00 in0.0 mm 0.89 in22.6 mm
08:35 AM 54.7°F12.6°C 54.4°F12.4°C 99% 2.3 mph SE3.7 kmh SE 3.5 mph5.6 kmh 30.02 in1016.6 mb - 0.01 in0.3 mm 0.89 in22.6 mm
08:30 AM 54.7°F12.6°C 54.4°F12.4°C 99% 1.2 mph SE1.9 kmh SE 3.5 mph5.6 kmh 30.02 in1016.6 mb - 0.00 in0.0 mm 0.88 in22.4 mm
08:25 AM 54.7°F12.6°C 54.4°F12.4°C 99% 1.2 mph SSE1.9 kmh SSE 3.5 mph5.6 kmh 30.03 in1016.9 mb - 0.00 in0.0 mm 0.88 in22.4 mm
08:20 AM 54.6°F12.6°C 54.3°F12.4°C 99% Calm Calm 3.5 mph5.6 kmh 30.03 in1016.9 mb - 0.00 in0.0 mm 0.88 in22.4 mm
08:15 AM 54.5°F12.5°C 54.3°F12.4°C 99% Calm Calm 3.5 mph5.6 kmh 30.03 in1016.9 mb - 0.00 in0.0 mm 0.88 in22.4 mm
08:10 AM 54.5°F12.5°C 54.2°F12.3°C 99% 4.6 mph ESE7.4 kmh ESE 9.2 mph14.8 kmh 30.02 in1016.6 mb - 0.01 in0.3 mm 0.88 in22.4 mm
08:00 AM 54.4°F12.4°C 54.1°F12.3°C 99% 3.5 mph SE5.6 kmh SE 6.9 mph11.1 kmh 30.04 in1017.3 mb - 0.01 in0.3 mm 0.88 in22.4 mm
07:55 AM 54.3°F12.4°C 54.0°F12.2°C 99% 4.6 mph SE7.4 kmh SE 5.8 mph9.3 kmh 30.03 in1016.9 mb - 0.00 in0.0 mm 0.87 in22.1 mm
07:50 AM 54.2°F12.3°C 53.9°F12.2°C 99% 5.8 mph ESE9.3 kmh ESE 6.9 mph11.1 kmh 30.03 in1016.9 mb - 0.00 in0.0 mm 0.87 in22.1 mm
07:45 AM 54.2°F12.3°C 53.9°F12.2°C 99% 4.6 mph ESE7.4 kmh ESE 8.1 mph13.0 kmh 30.03 in1016.9 mb - 0.01 in0.3 mm 0.87 in22.1 mm
07:40 AM 54.1°F12.3°C 53.8°F12.1°C 99% 4.6 mph SE7.4 kmh SE 6.9 mph11.1 kmh 30.03 in1016.9 mb - 0.00 in0.0 mm 0.86 in21.8 mm
07:35 AM 54.0°F12.2°C 53.7°F12.1°C 99% 3.5 mph ESE5.6 kmh ESE 5.8 mph9.3 kmh 30.04 in1017.3 mb - 0.00 in0.0 mm 0.86 in21.8 mm
07:30 AM 54.0°F12.2°C 53.7°F12.1°C 99% 4.6 mph ESE7.4 kmh ESE 6.9 mph11.1 kmh 30.04 in1017.3 mb - 0.01 in0.3 mm 0.86 in21.8 mm
07:25 AM 53.9°F12.2°C 53.6°F12.0°C 99% 4.6 mph ESE7.4 kmh ESE 5.8 mph9.3 kmh 30.05 in1017.6 mb - 0.02 in0.5 mm 0.85 in21.6 mm
07:20 AM 53.9°F12.2°C 53.6°F12.0°C 99% 3.5 mph SE5.6 kmh SE 4.6 mph7.4 kmh 30.07 in1018.3 mb - 0.00 in0.0 mm 0.83 in21.1 mm
07:15 AM 53.8°F12.1°C 53.5°F11.9°C 99% 2.3 mph SE3.7 kmh SE 3.5 mph5.6 kmh 30.05 in1017.6 mb - 0.01 in0.3 mm 0.83 in21.1 mm
07:10 AM 53.7°F12.1°C 53.4°F11.9°C 99% 1.2 mph E1.9 kmh E 3.5 mph5.6 kmh 30.03 in1016.9 mb - 0.01 in0.3 mm 0.82 in20.8 mm
07:00 AM 53.7°F12.1°C 53.4°F11.9°C 99% 2.3 mph ESE3.7 kmh ESE 3.5 mph5.6 kmh 30.05 in1017.6 mb - 0.00 in0.0 mm 0.81 in20.6 mm
06:55 AM 53.7°F12.1°C 53.4°F11.9°C 99% 2.3 mph SE3.7 kmh SE 3.5 mph5.6 kmh 30.07 in1018.3 mb - 0.01 in0.3 mm 0.81 in20.6 mm
06:50 AM 53.7°F12.1°C 53.4°F11.9°C 99% Calm Calm 2.3 mph3.7 kmh 30.06 in1017.9 mb - 0.01 in0.3 mm 0.80 in20.3 mm
06:45 AM 53.6°F12.0°C 53.4°F11.9°C 99% Calm Calm 1.2 mph1.9 kmh 30.06 in1017.9 mb - 0.01 in0.3 mm 0.79 in20.1 mm
06:40 AM 53.6°F12.0°C 53.3°F11.8°C 99% 2.3 mph SE3.7 kmh SE 3.5 mph5.6 kmh 30.07 in1018.3 mb - 0.01 in0.3 mm 0.78 in19.8 mm
06:35 AM 53.7°F12.1°C 53.4°F11.9°C 99% Calm Calm -- 30.05 in1017.6 mb - 0.01 in0.3 mm 0.77 in19.6 mm
06:30 AM 53.7°F12.1°C 53.4°F11.9°C 99% Calm Calm 1.2 mph1.9 kmh 30.07 in1018.3 mb - 0.01 in0.3 mm 0.76 in19.3 mm
06:25 AM 53.7°F12.1°C 53.4°F11.9°C 99% 1.2 mph ESE1.9 kmh ESE 2.3 mph3.7 kmh 30.07 in1018.3 mb - 0.02 in0.5 mm 0.76 in19.3 mm
06:20 AM 53.6°F12.0°C 53.3°F11.8°C 99% 2.3 mph E3.7 kmh E 3.5 mph5.6 kmh 30.06 in1017.9 mb - 0.01 in0.3 mm 0.74 in18.8 mm
06:15 AM 53.6°F12.0°C 53.3°F11.8°C 99% 1.2 mph ESE1.9 kmh ESE 3.5 mph5.6 kmh 30.06 in1017.9 mb - 0.01 in0.3 mm 0.73 in18.5 mm
06:10 AM 53.6°F12.0°C 53.3°F11.8°C 99% 2.3 mph E3.7 kmh E 3.5 mph5.6 kmh 30.07 in1018.3 mb - 0.01 in0.3 mm 0.72 in18.3 mm
06:00 AM 53.5°F11.9°C 53.2°F11.8°C 99% 3.5 mph E5.6 kmh E 3.5 mph5.6 kmh 30.06 in1017.9 mb - 0.00 in0.0 mm 0.71 in18.0 mm
05:55 AM 53.5°F11.9°C 53.2°F11.8°C 99% Calm Calm 2.3 mph3.7 kmh 30.07 in1018.3 mb - 0.00 in0.0 mm 0.71 in18.0 mm
05:50 AM 53.5°F11.9°C 53.2°F11.8°C 99% 2.3 mph NE3.7 kmh NE 3.5 mph5.6 kmh 30.07 in1018.3 mb - 0.01 in0.3 mm 0.71 in18.0 mm
05:45 AM 53.5°F11.9°C 53.2°F11.8°C 99% Calm Calm -- 30.08 in1018.6 mb - 0.01 in0.3 mm 0.70 in17.8 mm
05:40 AM 53.7°F12.1°C 53.4°F11.9°C 99% 2.3 mph NNE3.7 kmh NNE 3.5 mph5.6 kmh 30.06 in1017.9 mb - 0.01 in0.3 mm 0.70 in17.8 mm
05:35 AM 53.7°F12.1°C 53.4°F11.9°C 99% Calm Calm 1.2 mph1.9 kmh 30.09 in1019.0 mb - 0.00 in0.0 mm 0.69 in17.5 mm
05:30 AM 53.7°F12.1°C 53.4°F11.9°C 99% Calm Calm 2.3 mph3.7 kmh 30.09 in1019.0 mb - 0.01 in0.3 mm 0.69 in17.5 mm
05:25 AM 53.6°F12.0°C 53.4°F11.9°C 99% 2.3 mph ESE3.7 kmh ESE 3.5 mph5.6 kmh 30.07 in1018.3 mb - 0.01 in0.3 mm 0.69 in17.5 mm
05:20 AM 53.6°F12.0°C 53.3°F11.8°C 99% 2.3 mph ESE3.7 kmh ESE 3.5 mph5.6 kmh 30.07 in1018.3 mb - 0.01 in0.3 mm 0.68 in17.3 mm
05:15 AM 53.6°F12.0°C 53.3°F11.8°C 99% 1.2 mph ENE1.9 kmh ENE 2.3 mph3.7 kmh 30.06 in1017.9 mb - 0.01 in0.3 mm 0.67 in17.0 mm
05:10 AM 53.6°F12.0°C 53.3°F11.8°C 99% Calm Calm 1.2 mph1.9 kmh 30.08 in1018.6 mb - 0.02 in0.5 mm 0.66 in16.8 mm
05:00 AM 53.6°F12.0°C 53.3°F11.8°C 99% 1.2 mph SE1.9 kmh SE 2.3 mph3.7 kmh 30.07 in1018.3 mb - 0.02 in0.5 mm 0.64 in16.3 mm
04:55 AM 53.7°F12.1°C 53.4°F11.9°C 99% Calm Calm 2.3 mph3.7 kmh 30.08 in1018.6 mb - 0.01 in0.3 mm 0.62 in15.7 mm
04:50 AM 53.7°F12.1°C 53.4°F11.9°C 99% Calm Calm 1.2 mph1.9 kmh 30.08 in1018.6 mb - 0.01 in0.3 mm 0.61 in15.5 mm
04:45 AM 53.7°F12.1°C 53.5°F11.9°C 99% Calm Calm 1.2 mph1.9 kmh 30.07 in1018.3 mb - 0.01 in0.3 mm 0.60 in15.2 mm
04:40 AM 53.8°F12.1°C 53.5°F11.9°C 99% Calm Calm 2.3 mph3.7 kmh 30.07 in1018.3 mb - 0.00 in0.0 mm 0.59 in15.0 mm
04:35 AM 53.7°F12.1°C 53.4°F11.9°C 99% 2.3 mph ESE3.7 kmh ESE 3.5 mph5.6 kmh 30.08 in1018.6 mb - 0.01 in0.3 mm 0.59 in15.0 mm
04:30 AM 53.6°F12.0°C 53.3°F11.8°C 99% 1.2 mph SE1.9 kmh SE 2.3 mph3.7 kmh 30.08 in1018.6 mb - 0.00 in0.0 mm 0.58 in14.7 mm
04:25 AM 53.6°F12.0°C 53.3°F11.8°C 99% 1.2 mph E1.9 kmh E 3.5 mph5.6 kmh 30.07 in1018.3 mb - 0.01 in0.3 mm 0.58 in14.7 mm
04:20 AM 53.5°F11.9°C 53.2°F11.8°C 99% Calm Calm -- 30.06 in1017.9 mb - 0.01 in0.3 mm 0.57 in14.5 mm
04:15 AM 53.5°F11.9°C 53.2°F11.8°C 99% Calm Calm -- 30.05 in1017.6 mb - 0.02 in0.5 mm 0.57 in14.5 mm
04:10 AM 53.5°F11.9°C 53.2°F11.8°C 99% Calm Calm -- 30.06 in1017.9 mb - 0.04 in1.0 mm 0.56 in14.2 mm
04:00 AM 53.5°F11.9°C 53.2°F11.8°C 99% Calm Calm -- 30.07 in1018.3 mb - 0.02 in0.5 mm 0.53 in13.5 mm
03:55 AM 53.5°F11.9°C 53.2°F11.8°C 99% Calm Calm -- 30.06 in1017.9 mb - 0.02 in0.5 mm 0.51 in13.0 mm
03:50 AM 53.4°F11.9°C 53.1°F11.7°C 99% Calm Calm -- 30.05 in1017.6 mb - 0.02 in0.5 mm 0.49 in12.4 mm
03:45 AM 53.4°F11.9°C 53.1°F11.7°C 99% Calm Calm -- 30.05 in1017.6 mb - 0.01 in0.3 mm 0.47 in11.9 mm
03:40 AM 53.4°F11.9°C 53.2°F11.8°C 99% 1.2 mph NE1.9 kmh NE 3.5 mph5.6 kmh 30.05 in1017.6 mb - 0.01 in0.3 mm 0.46 in11.7 mm
03:35 AM 53.5°F11.9°C 53.2°F11.8°C 99% Calm Calm -- 30.07 in1018.3 mb - 0.01 in0.3 mm 0.45 in11.4 mm
03:30 AM 53.4°F11.9°C 53.2°F11.8°C 99% Calm Calm -- 30.07 in1018.3 mb - 0.02 in0.5 mm 0.44 in11.2 mm
03:25 AM 53.5°F11.9°C 53.2°F11.8°C 99% Calm Calm -- 30.08 in1018.6 mb - 0.02 in0.5 mm 0.43 in10.9 mm
03:20 AM 53.4°F11.9°C 53.1°F11.7°C 99% Calm Calm -- 30.09 in1019.0 mb - 0.03 in0.8 mm 0.41 in10.4 mm
03:15 AM 53.4°F11.9°C 53.1°F11.7°C 99% Calm Calm -- 30.09 in1019.0 mb - 0.02 in0.5 mm 0.39 in9.9 mm
03:10 AM 53.4°F11.9°C 53.1°F11.7°C 99% Calm Calm -- 30.08 in1018.6 mb - 0.03 in0.8 mm 0.37 in9.4 mm
03:00 AM 53.5°F11.9°C 53.2°F11.8°C 99% Calm Calm -- 30.07 in1018.3 mb - 0.01 in0.3 mm 0.34 in8.6 mm
02:55 AM 53.5°F11.9°C 53.2°F11.8°C 99% Calm Calm -- 30.07 in1018.3 mb - 0.01 in0.3 mm 0.33 in8.4 mm
02:50 AM 53.5°F11.9°C 53.2°F11.8°C 99% 1.2 mph NW1.9 kmh NW 2.3 mph3.7 kmh 30.07 in1018.3 mb - 0.01 in0.3 mm 0.32 in8.1 mm
02:45 AM 53.6°F12.0°C 53.3°F11.8°C 99% 1.2 mph WSW1.9 kmh WSW 1.2 mph1.9 kmh 30.07 in1018.3 mb - 0.00 in0.0 mm 0.31 in7.9 mm
02:40 AM 53.7°F12.1°C 53.4°F11.9°C 99% Calm Calm -- 30.08 in1018.6 mb - 0.01 in0.3 mm 0.31 in7.9 mm
02:35 AM 53.8°F12.1°C 53.5°F11.9°C 99% Calm Calm -- 30.09 in1019.0 mb - 0.00 in0.0 mm 0.30 in7.6 mm
02:30 AM 53.8°F12.1°C 53.5°F11.9°C 99% Calm Calm -- 30.09 in1019.0 mb - 0.01 in0.3 mm 0.30 in7.6 mm
02:25 AM 53.9°F12.2°C 53.6°F12.0°C 99% Calm Calm -- 30.10 in1019.3 mb - 0.01 in0.3 mm 0.29 in7.4 mm
02:20 AM 54.0°F12.2°C 53.7°F12.1°C 99% Calm Calm -- 30.11 in1019.6 mb - 0.02 in0.5 mm 0.28 in7.1 mm
02:15 AM 54.0°F12.2°C 53.7°F12.1°C 99% Calm Calm -- 30.10 in1019.3 mb - 0.02 in0.5 mm 0.27 in6.9 mm
02:10 AM 54.0°F12.2°C 53.7°F12.1°C 99% Calm Calm -- 30.09 in1019.0 mb - 0.02 in0.5 mm 0.25 in6.4 mm
02:00 AM 54.0°F12.2°C 53.7°F12.1°C 99% Calm Calm -- 30.08 in1018.6 mb - 0.01 in0.3 mm 0.23 in5.8 mm
01:55 AM 54.0°F12.2°C 53.7°F12.1°C 99% Calm Calm -- 30.09 in1019.0 mb - 0.01 in0.3 mm 0.22 in5.6 mm
01:50 AM 54.0°F12.2°C 53.7°F12.1°C 99% Calm Calm -- 30.09 in1019.0 mb - 0.02 in0.5 mm 0.21 in5.3 mm
01:45 AM 54.0°F12.2°C 53.7°F12.1°C 99% Calm Calm -- 30.08 in1018.6 mb - 0.02 in0.5 mm 0.19 in4.8 mm
01:40 AM 54.1°F12.3°C 53.8°F12.1°C 99% Calm Calm -- 30.09 in1019.0 mb - 0.03 in0.8 mm 0.18 in4.6 mm
01:35 AM 54.1°F12.3°C 53.8°F12.1°C 99% Calm Calm -- 30.09 in1019.0 mb - 0.03 in0.8 mm 0.16 in4.1 mm
01:30 AM 54.1°F12.3°C 53.8°F12.1°C 99% Calm Calm 1.2 mph1.9 kmh 30.10 in1019.3 mb - 0.02 in0.5 mm 0.14 in3.6 mm
01:25 AM 54.1°F12.3°C 53.8°F12.1°C 99% Calm Calm 1.2 mph1.9 kmh 30.09 in1019.0 mb - 0.01 in0.3 mm 0.12 in3.0 mm
01:20 AM 54.0°F12.2°C 53.7°F12.1°C 99% 2.3 mph SE3.7 kmh SE 2.3 mph3.7 kmh 30.09 in1019.0 mb - 0.01 in0.3 mm 0.11 in2.8 mm
01:15 AM 54.0°F12.2°C 53.7°F12.1°C 99% 2.3 mph SE3.7 kmh SE 3.5 mph5.6 kmh 30.09 in1019.0 mb - 0.01 in0.3 mm 0.11 in2.8 mm
01:10 AM 54.0°F12.2°C 53.7°F12.1°C 99% 2.3 mph SE3.7 kmh SE 4.6 mph7.4 kmh 30.08 in1018.6 mb - 0.01 in0.3 mm 0.10 in2.5 mm
01:00 AM 54.0°F12.2°C 53.7°F12.1°C 99% 2.3 mph SE3.7 kmh SE 3.5 mph5.6 kmh 30.08 in1018.6 mb - 0.00 in0.0 mm 0.09 in2.3 mm
12:55 AM 53.9°F12.2°C 53.6°F12.0°C 99% 3.5 mph ESE5.6 kmh ESE 6.9 mph11.1 kmh 30.08 in1018.6 mb - 0.01 in0.3 mm 0.09 in2.3 mm
12:50 AM 53.9°F12.2°C 53.6°F12.0°C 99% 1.2 mph SE1.9 kmh SE 3.5 mph5.6 kmh 30.08 in1018.6 mb - 0.01 in0.3 mm 0.08 in2.0 mm
12:45 AM 53.8°F12.1°C 53.5°F11.9°C 99% 2.3 mph SE3.7 kmh SE 3.5 mph5.6 kmh 30.08 in1018.6 mb - 0.00 in0.0 mm 0.07 in1.8 mm
12:40 AM 53.8°F12.1°C 53.5°F11.9°C 99% 2.3 mph SE3.7 kmh SE 3.5 mph5.6 kmh 30.09 in1019.0 mb - 0.01 in0.3 mm 0.07 in1.8 mm
12:35 AM 53.7°F12.1°C 53.4°F11.9°C 99% 3.5 mph SE5.6 kmh SE 3.5 mph5.6 kmh 30.09 in1019.0 mb - 0.02 in0.5 mm 0.06 in1.5 mm
12:30 AM 53.6°F12.0°C 53.3°F11.8°C 99% 2.3 mph ESE3.7 kmh ESE 3.5 mph5.6 kmh 30.09 in1019.0 mb - 0.02 in0.5 mm 0.05 in1.3 mm
12:25 AM 53.4°F11.9°C 53.1°F11.7°C 99% 2.3 mph SE3.7 kmh SE 4.6 mph7.4 kmh 30.10 in1019.3 mb - 0.01 in0.3 mm 0.03 in0.8 mm
12:20 AM 53.1°F11.7°C 52.8°F11.6°C 99% 2.3 mph ESE3.7 kmh ESE 3.5 mph5.6 kmh 30.11 in1019.6 mb - 0.01 in0.3 mm 0.02 in0.5 mm
12:15 AM 52.8°F11.6°C 52.5°F11.4°C 99% 2.3 mph ESE3.7 kmh ESE 3.5 mph5.6 kmh 30.11 in1019.6 mb - 0.01 in0.3 mm 0.01 in0.3 mm
12:10 AM 52.6°F11.4°C 52.3°F11.3°C 99% 1.2 mph SE1.9 kmh SE 3.5 mph5.6 kmh 30.13 in1020.3 mb - 0.01 in0.3 mm 0.01 in0.3 mm
12:00 AM 52.4°F11.3°C 51.9°F11.1°C 98% 2.3 mph SE3.7 kmh SE 3.5 mph5.6 kmh 30.11 in1019.6 mb - 0.01 in0.3 mm 0.01 in0.3 mm